createdAt,value
2024-01-18T00:01:19.111Z,1.80
2024-01-18T00:03:46.402Z,1.80
2024-01-18T00:06:13.293Z,1.80
2024-01-18T00:08:40.043Z,1.80
2024-01-18T00:11:06.769Z,1.80
2024-01-18T00:13:33.529Z,1.80
2024-01-18T00:16:01.235Z,1.70
2024-01-18T00:18:31.032Z,1.70
2024-01-18T00:20:58.139Z,1.70
2024-01-18T00:23:24.935Z,1.60
2024-01-18T00:25:52.284Z,1.60
2024-01-18T00:28:24.739Z,1.60
2024-01-18T00:30:55.428Z,1.60
2024-01-18T00:33:23.466Z,1.60
2024-01-18T00:35:50.439Z,1.60
2024-01-18T00:38:17.221Z,1.60
2024-01-18T00:40:44.927Z,1.60
2024-01-18T00:43:12.065Z,1.60
2024-01-18T00:45:39.006Z,1.60
2024-01-18T00:48:06.225Z,1.60
2024-01-18T00:50:33.005Z,1.50
2024-01-18T00:52:59.715Z,1.50
2024-01-18T00:55:26.592Z,1.60
2024-01-18T00:57:54.732Z,1.50
2024-01-18T01:00:23.188Z,1.50
2024-01-18T01:02:55.243Z,1.50
2024-01-18T01:05:22.704Z,1.50
2024-01-18T01:07:52.755Z,1.50
2024-01-18T01:10:21.479Z,1.40
2024-01-18T01:12:49.040Z,1.50
2024-01-18T01:15:16.403Z,1.40
2024-01-18T01:17:44.244Z,1.40
2024-01-18T01:20:11.954Z,1.40
2024-01-18T01:22:38.899Z,1.40
2024-01-18T01:25:06.626Z,1.40
2024-01-18T01:27:33.408Z,1.40
2024-01-18T01:30:05.058Z,1.40
2024-01-18T01:32:35.282Z,1.40
2024-01-18T01:35:05.166Z,1.40
2024-01-18T01:37:32.441Z,1.40
2024-01-18T01:39:59.329Z,1.40
2024-01-18T01:42:26.041Z,1.40
2024-01-18T01:44:54.759Z,1.30
2024-01-18T01:47:21.560Z,1.30
2024-01-18T01:49:49.561Z,1.40
2024-01-18T01:52:17.494Z,1.40
2024-01-18T01:54:46.850Z,1.40
2024-01-18T01:57:16.479Z,1.40
2024-01-18T01:59:53.209Z,1.40
2024-01-18T02:02:27.449Z,1.40
2024-01-18T02:04:55.516Z,1.30
2024-01-18T02:07:23.583Z,1.30
2024-01-18T02:09:52.593Z,1.30
2024-01-18T02:12:21.288Z,1.30
2024-01-18T02:14:50.628Z,1.30
2024-01-18T02:17:17.772Z,1.30
2024-01-18T02:19:44.556Z,1.30
2024-01-18T02:22:17.162Z,1.30
2024-01-18T02:24:51.059Z,1.30
2024-01-18T02:27:21.460Z,1.30
2024-01-18T02:29:49.435Z,1.30
2024-01-18T02:32:16.625Z,1.30
2024-01-18T02:34:44.696Z,1.30
2024-01-18T02:37:12.568Z,1.30
2024-01-18T02:39:39.618Z,1.30
2024-01-18T02:42:06.865Z,1.30
2024-01-18T02:44:33.786Z,1.30
2024-01-18T02:47:00.502Z,1.30
2024-01-18T02:49:27.270Z,1.20
2024-01-18T02:51:54.144Z,1.20
2024-01-18T02:54:21.191Z,1.30
2024-01-18T02:56:48.036Z,1.20
2024-01-18T02:59:14.841Z,1.20
2024-01-18T03:01:41.607Z,1.30
2024-01-18T03:04:08.591Z,1.20
2024-01-18T03:06:35.765Z,1.20
2024-01-18T03:09:02.773Z,1.20
2024-01-18T03:11:29.558Z,1.20
2024-01-18T03:13:58.541Z,1.20
2024-01-18T03:16:30.110Z,1.20
2024-01-18T03:19:00.458Z,1.10
2024-01-18T03:21:27.718Z,1.10
2024-01-18T03:23:54.511Z,1.10
2024-01-18T03:26:21.214Z,1.10
2024-01-18T03:28:47.948Z,1.10
2024-01-18T03:31:14.671Z,1.00
2024-01-18T03:33:41.614Z,1.10
2024-01-18T03:36:09.735Z,1.10
2024-01-18T03:38:36.753Z,1.00
2024-01-18T03:41:03.596Z,1.00
2024-01-18T03:43:30.337Z,1.00
2024-01-18T03:45:57.230Z,1.00
2024-01-18T03:48:24.108Z,1.10
2024-01-18T03:50:50.903Z,1.10
2024-01-18T03:53:17.961Z,1.10
2024-01-18T03:55:44.863Z,1.10
2024-01-18T03:58:12.374Z,1.10
2024-01-18T04:00:42.610Z,1.10
2024-01-18T04:03:09.657Z,1.00
2024-01-18T04:05:37.752Z,1.00
2024-01-18T04:08:10.619Z,0.90
2024-01-18T04:10:39.926Z,0.90
2024-01-18T04:13:07.076Z,0.80
2024-01-18T04:15:33.857Z,0.80
2024-01-18T04:18:00.793Z,0.80
2024-01-18T04:20:28.868Z,0.70
2024-01-18T04:22:55.928Z,0.70
2024-01-18T04:25:23.623Z,0.70
2024-01-18T04:27:50.497Z,0.70
2024-01-18T04:30:17.460Z,0.70
2024-01-18T04:32:44.261Z,0.70
2024-01-18T04:35:11.758Z,0.70
2024-01-18T04:37:42.336Z,0.60
2024-01-18T04:40:16.970Z,0.70
2024-01-18T04:42:46.818Z,0.60
2024-01-18T04:45:13.933Z,0.60
2024-01-18T04:47:41.063Z,0.60
2024-01-18T04:50:09.358Z,0.60
2024-01-18T04:52:36.319Z,0.60
2024-01-18T04:55:06.176Z,0.60
2024-01-18T04:57:34.167Z,0.50
2024-01-18T05:00:01.295Z,0.60
2024-01-18T05:02:28.109Z,0.50
2024-01-18T05:04:54.980Z,0.60
2024-01-18T05:07:24.600Z,0.50
2024-01-18T05:09:53.613Z,0.50
2024-01-18T05:12:23.455Z,0.40
2024-01-18T05:14:57.462Z,0.50
2024-01-18T05:17:29.915Z,0.50
2024-01-18T05:19:56.888Z,0.50
2024-01-18T05:22:23.688Z,0.40
2024-01-18T05:24:50.479Z,0.40
2024-01-18T05:27:17.212Z,0.40
2024-01-18T05:29:44.024Z,0.40
2024-01-18T05:32:10.795Z,0.40
2024-01-18T05:34:37.854Z,0.30
2024-01-18T05:37:06.626Z,0.30
2024-01-18T05:39:52.207Z,0.30
2024-01-18T05:42:21.156Z,0.30
2024-01-18T05:44:49.109Z,0.30
2024-01-18T05:47:16.171Z,0.30
2024-01-18T05:49:43.094Z,0.30
2024-01-18T05:52:10.028Z,0.30
2024-01-18T05:54:37.036Z,0.30
2024-01-18T05:57:05.545Z,0.30
2024-01-18T05:59:32.906Z,0.30
2024-01-18T06:02:00.229Z,0.30
2024-01-18T06:04:27.146Z,0.30
2024-01-18T06:06:55.483Z,0.30
2024-01-18T06:09:25.368Z,0.30
2024-01-18T06:11:57.242Z,0.30
2024-01-18T06:14:24.453Z,0.40
2024-01-18T06:16:54.583Z,0.40
2024-01-18T06:19:21.881Z,0.30
2024-01-18T06:21:49.303Z,0.30
2024-01-18T06:24:16.935Z,0.30
2024-01-18T06:26:44.159Z,0.40
2024-01-18T06:29:13.142Z,0.40
2024-01-18T06:31:39.978Z,0.40
2024-01-18T06:34:06.958Z,0.40
2024-01-18T06:36:33.975Z,0.40
2024-01-18T06:39:00.927Z,0.40
2024-01-18T06:41:27.661Z,0.40
2024-01-18T06:43:54.450Z,0.40
2024-01-18T06:46:22.085Z,0.40
2024-01-18T06:48:55.330Z,0.40
2024-01-18T06:51:22.765Z,0.30
2024-01-18T06:53:50.144Z,0.40
2024-01-18T06:56:17.775Z,0.40
2024-01-18T06:58:47.269Z,0.40
2024-01-18T07:01:14.620Z,0.40
2024-01-18T07:03:43.379Z,0.40
2024-01-18T07:06:10.756Z,0.40
2024-01-18T07:08:40.404Z,0.40
2024-01-18T07:11:07.204Z,0.40
2024-01-18T07:13:34.036Z,0.30
2024-01-18T07:16:01.120Z,0.30
2024-01-18T07:18:28.197Z,0.40
2024-01-18T07:20:55.161Z,0.40
2024-01-18T07:23:22.009Z,0.30
2024-01-18T07:25:48.782Z,0.30
2024-01-18T07:28:15.705Z,0.30
2024-01-18T07:30:43.060Z,0.30
2024-01-18T07:33:10.007Z,0.20
2024-01-18T07:35:36.897Z,0.20
2024-01-18T07:38:03.710Z,0.20
2024-01-18T07:40:30.556Z,0.20
2024-01-18T07:42:57.392Z,0.20
2024-01-18T07:45:24.219Z,0.20
2024-01-18T07:47:51.220Z,0.20
2024-01-18T07:50:30.144Z,0.10
2024-01-18T07:53:02.285Z,0.10
2024-01-18T07:55:30.033Z,0.10
2024-01-18T07:57:57.310Z,0.10
2024-01-18T08:00:24.720Z,0.10
2024-01-18T08:02:52.447Z,0.10
2024-01-18T08:05:19.262Z,0.10
2024-01-18T08:07:46.042Z,0.10
2024-01-18T08:10:12.827Z,0.00
2024-01-18T08:12:39.753Z,0.00
2024-01-18T08:15:06.793Z,0.00
2024-01-18T08:17:34.547Z,0.00
2024-01-18T08:20:01.569Z,0.00
2024-01-18T08:22:28.990Z,0.00
2024-01-18T08:24:58.029Z,0.00
2024-01-18T08:27:25.214Z,0.10
2024-01-18T08:29:52.116Z,0.10
2024-01-18T08:32:18.949Z,0.10
2024-01-18T08:34:46.089Z,0.00
2024-01-18T08:37:13.652Z,0.00
2024-01-18T08:39:40.770Z,0.00
2024-01-18T08:42:08.401Z,0.00
2024-01-18T08:44:35.249Z,0.00
2024-01-18T08:47:02.035Z,0.00
2024-01-18T08:49:30.080Z,0.00
2024-01-18T08:51:56.940Z,0.00
2024-01-18T08:54:23.858Z,-0.10
2024-01-18T08:56:50.685Z,0.00
2024-01-18T08:59:17.623Z,0.00
2024-01-18T09:01:44.553Z,-0.10
2024-01-18T09:04:11.882Z,0.00
2024-01-18T09:06:39.276Z,-0.10
2024-01-18T09:09:17.249Z,-0.10
2024-01-18T09:11:44.047Z,-0.10
2024-01-18T09:14:11.107Z,-0.10
2024-01-18T09:16:38.698Z,-0.10
2024-01-18T09:19:26.436Z,-0.20
2024-01-18T09:21:53.623Z,-0.20
2024-01-18T09:24:21.061Z,-0.20
2024-01-18T09:26:48.309Z,-0.20
2024-01-18T09:29:15.051Z,-0.30
2024-01-18T09:31:43.419Z,-0.30
2024-01-18T09:34:11.786Z,-0.30
2024-01-18T09:36:38.877Z,-0.30
2024-01-18T09:39:26.051Z,-0.30
2024-01-18T09:41:57.052Z,-0.30
2024-01-18T09:44:33.947Z,-0.30
2024-01-18T09:47:05.009Z,-0.30
2024-01-18T09:49:34.845Z,-0.30
2024-01-18T09:52:02.269Z,-0.30
2024-01-18T09:54:30.309Z,-0.30
2024-01-18T09:57:01.393Z,-0.40
2024-01-18T09:59:29.704Z,-0.40
2024-01-18T10:01:57.878Z,-0.50
2024-01-18T10:04:28.930Z,-0.50
2024-01-18T10:06:56.149Z,-0.50
2024-01-18T10:09:23.105Z,-0.50
2024-01-18T10:11:49.932Z,-0.50
2024-01-18T10:14:17.154Z,-0.50
2024-01-18T10:16:43.944Z,-0.50
2024-01-18T10:19:20.023Z,-0.40
2024-01-18T10:21:48.562Z,-0.50
2024-01-18T10:24:16.459Z,-0.50
2024-01-18T10:26:43.426Z,-0.40
2024-01-18T10:29:10.545Z,-0.40
2024-01-18T10:31:42.569Z,-0.40
2024-01-18T10:34:10.098Z,-0.50
2024-01-18T10:36:38.688Z,-0.40
2024-01-18T10:39:19.677Z,-0.40
2024-01-18T10:41:46.868Z,-0.40
2024-01-18T10:44:17.457Z,-0.40
2024-01-18T10:46:46.771Z,-0.40
2024-01-18T10:49:14.964Z,-0.40
2024-01-18T10:51:42.270Z,-0.30
2024-01-18T10:54:21.496Z,-0.30
2024-01-18T10:56:57.380Z,-0.30
2024-01-18T10:59:25.251Z,-0.20
2024-01-18T11:01:53.185Z,-0.20
2024-01-18T11:04:20.176Z,-0.10
2024-01-18T11:06:48.251Z,-0.10
2024-01-18T11:09:16.617Z,-0.10
2024-01-18T11:11:43.929Z,-0.10
2024-01-18T11:14:10.791Z,-0.10
2024-01-18T11:16:39.970Z,-0.20
2024-01-18T11:19:06.958Z,-0.10
2024-01-18T11:21:42.074Z,-0.20
2024-01-18T11:24:09.447Z,-0.20
2024-01-18T11:26:36.291Z,-0.20
2024-01-18T11:29:19.766Z,-0.30
2024-01-18T11:31:52.143Z,-0.30
2024-01-18T11:34:38.623Z,-0.30
2024-01-18T11:37:18.321Z,-0.30
2024-01-18T11:39:51.051Z,-0.30
2024-01-18T11:42:27.136Z,-0.30
2024-01-18T11:45:05.101Z,-0.30
2024-01-18T11:47:36.148Z,-0.30
2024-01-18T11:50:06.878Z,-0.20
2024-01-18T11:52:37.681Z,-0.10
2024-01-18T11:55:05.660Z,-0.10
2024-01-18T11:57:33.948Z,-0.10
2024-01-18T12:00:01.734Z,-0.10
2024-01-18T12:02:31.693Z,0.00
2024-01-18T12:04:59.166Z,0.00
2024-01-18T12:07:27.433Z,-0.10
2024-01-18T12:09:54.564Z,-0.10
2024-01-18T12:12:22.232Z,0.00
2024-01-18T12:14:49.634Z,0.00
2024-01-18T12:17:17.700Z,0.10
2024-01-18T12:19:46.592Z,0.10
2024-01-18T12:22:19.274Z,0.20
2024-01-18T12:24:49.476Z,0.20
2024-01-18T12:27:17.033Z,0.10
2024-01-18T12:29:44.261Z,0.20
2024-01-18T12:32:11.355Z,0.30
2024-01-18T12:34:39.095Z,0.20
2024-01-18T12:37:06.262Z,0.20
2024-01-18T12:39:34.978Z,0.30
2024-01-18T12:42:02.526Z,0.30
2024-01-18T12:44:30.292Z,0.30
2024-01-18T12:47:02.691Z,0.30
2024-01-18T12:49:32.231Z,0.30
2024-01-18T12:52:00.507Z,0.30
2024-01-18T12:54:29.839Z,0.20
2024-01-18T12:57:01.637Z,0.20
2024-01-18T12:59:33.331Z,0.30
2024-01-18T13:02:00.649Z,0.20
2024-01-18T13:04:28.505Z,0.30
2024-01-18T13:07:02.522Z,0.30
2024-01-18T13:09:32.752Z,0.30
2024-01-18T13:12:04.524Z,0.30
2024-01-18T13:14:32.906Z,0.30
2024-01-18T13:17:05.515Z,0.30
2024-01-18T13:19:32.563Z,0.40
2024-01-18T13:22:00.148Z,0.30
2024-01-18T13:24:29.295Z,0.40
2024-01-18T13:26:56.115Z,0.40
2024-01-18T13:29:22.928Z,0.30
2024-01-18T13:31:49.823Z,0.40
2024-01-18T13:34:17.934Z,0.30
2024-01-18T13:36:45.408Z,0.30
2024-01-18T13:39:12.526Z,0.20
2024-01-18T13:41:39.503Z,0.30
2024-01-18T13:44:08.289Z,0.30
2024-01-18T13:46:35.499Z,0.30
2024-01-18T13:49:02.538Z,0.20
2024-01-18T13:51:32.712Z,0.30
2024-01-18T13:54:01.711Z,0.30
2024-01-18T13:56:33.268Z,0.30
2024-01-18T13:59:09.094Z,0.30
2024-01-18T14:01:40.568Z,0.30
2024-01-18T14:04:08.504Z,0.30
2024-01-18T14:06:35.354Z,0.30
2024-01-18T14:09:02.227Z,0.40
2024-01-18T14:11:29.379Z,0.30
2024-01-18T14:13:56.200Z,0.40
2024-01-18T14:16:23.037Z,0.30
2024-01-18T14:18:50.093Z,0.30
2024-01-18T14:21:19.686Z,0.40
2024-01-18T14:23:46.505Z,0.40
2024-01-18T14:26:13.586Z,0.40
2024-01-18T14:28:40.326Z,0.40
2024-01-18T14:31:07.364Z,0.40
2024-01-18T14:33:34.385Z,0.40
2024-01-18T14:36:01.685Z,0.40
2024-01-18T14:38:28.485Z,0.40
2024-01-18T14:40:55.362Z,0.40
2024-01-18T14:43:22.350Z,0.40
2024-01-18T14:45:49.555Z,0.40
2024-01-18T14:48:18.175Z,0.40
2024-01-18T14:50:46.355Z,0.40
2024-01-18T14:53:15.982Z,0.40
2024-01-18T14:55:43.391Z,0.40
2024-01-18T14:58:11.228Z,0.40
2024-01-18T15:00:39.120Z,0.40
2024-01-18T15:03:07.502Z,0.40
2024-01-18T15:05:35.027Z,0.50
2024-01-18T15:08:05.711Z,0.50
2024-01-18T15:10:33.132Z,0.40
2024-01-18T15:13:00.141Z,0.40
2024-01-18T15:15:27.547Z,0.40
2024-01-18T15:17:54.716Z,0.40
2024-01-18T15:20:21.766Z,0.40
2024-01-18T15:22:48.745Z,0.40
2024-01-18T15:25:15.745Z,0.40
2024-01-18T15:27:42.737Z,0.40
2024-01-18T15:30:12.918Z,0.40
2024-01-18T15:32:39.781Z,0.30
2024-01-18T15:35:07.160Z,0.30
2024-01-18T15:37:34.046Z,0.20
2024-01-18T15:40:01.069Z,0.20
2024-01-18T15:42:27.994Z,0.30
2024-01-18T15:44:54.856Z,0.20
2024-01-18T15:47:22.426Z,0.20
2024-01-18T15:49:49.349Z,0.10
2024-01-18T15:52:16.439Z,0.10
2024-01-18T15:54:43.361Z,0.20
2024-01-18T15:57:12.620Z,0.20
2024-01-18T15:59:41.919Z,0.20
2024-01-18T16:02:14.596Z,0.20
2024-01-18T16:04:41.873Z,0.10
2024-01-18T16:07:08.720Z,0.10
2024-01-18T16:09:35.634Z,0.10
2024-01-18T16:12:02.559Z,0.10
2024-01-18T16:14:30.000Z,0.20
2024-01-18T16:16:58.270Z,0.20
2024-01-18T16:19:26.588Z,0.20
2024-01-18T16:21:53.545Z,0.20
2024-01-18T16:24:20.322Z,0.30
2024-01-18T16:26:47.580Z,0.30
2024-01-18T16:29:14.682Z,0.20
2024-01-18T16:31:41.694Z,0.20
2024-01-18T16:34:08.775Z,0.20
2024-01-18T16:36:38.415Z,0.10
2024-01-18T16:39:06.763Z,0.10
2024-01-18T16:41:33.844Z,0.10
2024-01-18T16:44:03.231Z,0.10
2024-01-18T16:46:33.192Z,0.10
2024-01-18T16:49:04.224Z,0.00
2024-01-18T16:51:31.216Z,-0.10
2024-01-18T16:53:58.397Z,-0.20
2024-01-18T16:56:25.124Z,-0.30
2024-01-18T16:58:51.957Z,-0.40
2024-01-18T17:01:19.562Z,-0.40
2024-01-18T17:03:46.496Z,-0.50
2024-01-18T17:06:14.756Z,-0.50
2024-01-18T17:08:42.145Z,-0.60
2024-01-18T17:11:19.918Z,-0.60
2024-01-18T17:13:47.997Z,-0.60
2024-01-18T17:16:14.910Z,-0.70
2024-01-18T17:18:41.758Z,-0.80
2024-01-18T17:21:08.563Z,-0.80
2024-01-18T17:23:35.312Z,-0.90
2024-01-18T17:26:02.474Z,-1.00
2024-01-18T17:28:29.298Z,-1.00
2024-01-18T17:30:56.197Z,-1.10
2024-01-18T17:33:23.822Z,-1.10
2024-01-18T17:35:51.043Z,-1.10
2024-01-18T17:38:18.749Z,-1.10
2024-01-18T17:40:45.498Z,-1.10
2024-01-18T17:43:12.706Z,-1.20
2024-01-18T17:45:39.548Z,-1.30
2024-01-18T17:48:08.097Z,-1.30
2024-01-18T17:50:35.475Z,-1.30
2024-01-18T17:53:02.460Z,-1.40
2024-01-18T17:55:29.523Z,-1.40
2024-01-18T17:57:56.367Z,-1.40
2024-01-18T18:00:26.986Z,-1.30
2024-01-18T18:02:59.787Z,-1.40
2024-01-18T18:05:26.734Z,-1.40
2024-01-18T18:07:57.388Z,-1.40
2024-01-18T18:10:24.421Z,-1.40
2024-01-18T18:12:51.518Z,-1.50
2024-01-18T18:15:19.423Z,-1.60
2024-01-18T18:17:46.837Z,-1.60
2024-01-18T18:20:16.095Z,-1.60
2024-01-18T18:22:44.941Z,-1.60
2024-01-18T18:25:12.759Z,-1.60
2024-01-18T18:27:40.679Z,-1.70
2024-01-18T18:30:14.176Z,-1.80
2024-01-18T18:32:43.881Z,-1.80
2024-01-18T18:35:10.898Z,-1.80
2024-01-18T18:37:38.218Z,-1.90
2024-01-18T18:40:06.844Z,-2.00
2024-01-18T18:42:33.708Z,-2.00
2024-01-18T18:45:01.050Z,-2.00
2024-01-18T18:47:27.971Z,-2.00
2024-01-18T18:49:57.502Z,-2.10
2024-01-18T18:52:24.418Z,-2.10
2024-01-18T18:54:51.722Z,-2.30
2024-01-18T18:57:18.445Z,-2.30
2024-01-18T18:59:52.478Z,-2.40
2024-01-18T19:02:19.900Z,-2.40
2024-01-18T19:04:46.864Z,-2.40
2024-01-18T19:07:14.134Z,-2.60
2024-01-18T19:09:42.182Z,-2.60
2024-01-18T19:12:09.241Z,-2.70
2024-01-18T19:14:36.626Z,-2.70
2024-01-18T19:17:03.584Z,-2.70
2024-01-18T19:19:30.508Z,-2.70
2024-01-18T19:21:57.471Z,-2.70
2024-01-18T19:24:32.344Z,-2.70
2024-01-18T19:27:00.337Z,-2.70
2024-01-18T19:29:27.757Z,-2.60
2024-01-18T19:32:15.500Z,-2.60
2024-01-18T19:34:48.115Z,-2.60
2024-01-18T19:37:15.383Z,-2.60
2024-01-18T19:39:44.286Z,-2.60
2024-01-18T19:42:17.467Z,-2.60
2024-01-18T19:44:48.055Z,-2.70
2024-01-18T19:47:15.489Z,-2.80
2024-01-18T19:49:44.063Z,-3.00
2024-01-18T19:52:11.024Z,-3.20
2024-01-18T19:54:37.924Z,-3.20
2024-01-18T19:57:05.453Z,-3.20
2024-01-18T19:59:33.261Z,-3.10
2024-01-18T20:02:05.206Z,-3.20
2024-01-18T20:04:36.262Z,-3.10
2024-01-18T20:07:06.307Z,-3.00
2024-01-18T20:09:34.802Z,-3.00
2024-01-18T20:12:01.975Z,-3.00
2024-01-18T20:14:29.027Z,-3.00
2024-01-18T20:17:01.856Z,-3.10
2024-01-18T20:19:35.083Z,-3.20
2024-01-18T20:22:02.300Z,-3.30
2024-01-18T20:24:34.805Z,-3.40
2024-01-18T20:27:04.452Z,-3.30
2024-01-18T20:29:34.626Z,-3.50
2024-01-18T20:32:05.644Z,-3.60
2024-01-18T20:34:33.668Z,-3.60
2024-01-18T20:37:02.635Z,-3.60
2024-01-18T20:39:35.166Z,-3.60
2024-01-18T20:42:04.551Z,-3.60
2024-01-18T20:44:33.618Z,-3.60
2024-01-18T20:47:02.059Z,-3.60
2024-01-18T20:49:37.933Z,-3.50
2024-01-18T20:52:08.248Z,-3.50
2024-01-18T20:54:36.516Z,-3.50
2024-01-18T20:57:10.001Z,-3.50
2024-01-18T20:59:38.238Z,-3.50
2024-01-18T21:02:16.395Z,-3.50
2024-01-18T21:04:46.204Z,-3.60
2024-01-18T21:07:20.204Z,-3.70
2024-01-18T21:09:51.005Z,-3.80
2024-01-18T21:12:27.150Z,-3.80
2024-01-18T21:15:00.888Z,-3.70
2024-01-18T21:17:41.925Z,-3.60
2024-01-18T21:20:12.678Z,-3.60
2024-01-18T21:22:50.220Z,-3.60
2024-01-18T21:25:21.405Z,-3.60
2024-01-18T21:27:49.709Z,-3.60
2024-01-18T21:30:17.553Z,-3.60
2024-01-18T21:32:45.479Z,-3.70
2024-01-18T21:35:12.764Z,-3.70
2024-01-18T21:37:49.773Z,-3.70
2024-01-18T21:40:17.721Z,-3.70
2024-01-18T21:42:46.044Z,-3.70
2024-01-18T21:45:23.361Z,-3.70
2024-01-18T21:47:55.166Z,-3.70
2024-01-18T21:50:27.108Z,-3.70
2024-01-18T21:52:54.513Z,-3.70
2024-01-18T21:55:24.008Z,-3.70
2024-01-18T21:57:51.222Z,-3.70
2024-01-18T22:00:18.782Z,-3.60
2024-01-18T22:02:46.972Z,-3.50
2024-01-18T22:05:13.983Z,-3.40
2024-01-18T22:07:42.059Z,-3.40
2024-01-18T22:10:09.203Z,-3.40
2024-01-18T22:12:36.402Z,-3.40
2024-01-18T22:15:05.532Z,-3.60
2024-01-18T22:17:35.684Z,-3.70
2024-01-18T22:20:05.793Z,-3.90
2024-01-18T22:22:34.320Z,-4.00
2024-01-18T22:25:01.623Z,-3.90
2024-01-18T22:27:29.770Z,-3.80
2024-01-18T22:29:57.249Z,-3.80
2024-01-18T22:32:24.189Z,-3.70
2024-01-18T22:34:52.659Z,-3.70
2024-01-18T22:37:22.540Z,-3.60
2024-01-18T22:39:49.696Z,-3.50
2024-01-18T22:42:18.365Z,-3.50
2024-01-18T22:44:46.077Z,-3.40
2024-01-18T22:47:16.997Z,-3.30
2024-01-18T22:49:53.075Z,-3.20
2024-01-18T22:52:21.941Z,-3.20
2024-01-18T22:54:57.657Z,-3.20
2024-01-18T22:57:28.934Z,-3.20
2024-01-18T22:59:59.582Z,-3.30
2024-01-18T23:02:32.995Z,-3.70
2024-01-18T23:05:00.413Z,-3.70
2024-01-18T23:07:27.178Z,-3.70
2024-01-18T23:09:54.021Z,-3.60
2024-01-18T23:12:23.637Z,-3.70
2024-01-18T23:14:50.601Z,-3.70
2024-01-18T23:17:21.167Z,-3.70
2024-01-18T23:19:49.502Z,-3.70
2024-01-18T23:22:23.925Z,-3.70
2024-01-18T23:24:51.537Z,-3.60
2024-01-18T23:27:19.639Z,-3.50
2024-01-18T23:29:47.543Z,-3.50
2024-01-18T23:32:17.202Z,-3.30
2024-01-18T23:34:48.705Z,-3.20
2024-01-18T23:37:18.444Z,-3.20
2024-01-18T23:39:47.372Z,-3.10
2024-01-18T23:42:14.178Z,-3.10
2024-01-18T23:44:41.265Z,-3.00
2024-01-18T23:47:08.864Z,-3.00
2024-01-18T23:49:35.929Z,-3.10
2024-01-18T23:52:03.144Z,-3.00
2024-01-18T23:54:30.211Z,-3.20
2024-01-18T23:56:57.144Z,-3.20
2024-01-18T23:59:24.148Z,-3.20
